Terminal Aerodrome Forecast
Issued by NWS Sterling, VA

Current Version | Previous Version | Graphics & Text | Print | Product List | Glossary On
Versions: 1 2 3 4 5 6 7 8 9 10 11 12 13 14 15
485
FTUS41 KLWX 021738
TAFMRB
TAF
KMRB 021738Z 0218/0318 27013G20KT P6SM OVC040
     FM022300 28009KT P6SM BKN040 OVC140
     FM031500 30013G20KT P6SM SCT040 BKN150=

USA.gov is the U.S. government's official web portal to all federal, state and local government web resources and services.